Airfield :
LOGIN :

Register | Disclaimer

   EN    FR    IT 

 










Legend :    VFR   Marginal VFR   IFR   Intensive IFR   Very Intensive IFR
Visi :
Ceiling :
>= 8 km
>= 3000ft
5 to 8 km
1000 to 3000 ft
1500m to 5 km
500 to 1000 ft
800 to 1500m
200 to 500 ft
< 800m
< 200 ft
Symbols :   Thunderstorms  Fog  Heavy snow  Heavy precipitations  Wind > 20 kt
SIGMETs :     Misc.  Thunderstorms  Icing  Turbulence  Mountain Waves  Volcanic Ashes






- Airport Elevation : 335 ft
- IATA code : BEG


LYBE - Belgrade Nikola Tesla

CURRENT METAR :
  • 260930Z 10004KT 060V130 0600 R12/0750N R30/1100N FG OVC002 00/00 Q1027 TEMPO 0800

EXPIRED METARs :
  • 260900Z 11004KT 0500 R12/0650N R30/0700N FG VV002 00/00 Q1028 NOSIG
  • 260830Z 09003KT 0500 R12/0650N R30/0700N FG VV002 00/00 Q1028 NOSIG
  • 260800Z 10004KT 0400 R12/0450N R30/0600N FZFG VV002 M00/M00 Q1028 NOSIG
  • 260730Z 11003KT 080V140 0400 R12/0500N R30/0600N FZFG VV002 M00/M00 Q1028 NOSIG
  • 260700Z 12003KT 0400 R12/0500N R30/0450N FZFG VV002 M00/M00 Q1028 NOSIG

TAF COR TAF LYBE
Valid from the 26 at 09:00 until the 27 at 06:00 UTC


260900Z 2609/2706 07004KT 0600 FG OVC003 TX01/2613Z TN00/2705Z
BECMG 2610/2611 0800
TEMPO 2612/2615 1500 BR OVC005
BECMG 2618/2621 0500



MET'MAP, your aeronautical weather chart ! - Copyright ORBIFLY December 2007 - Disclaimer

ORBIFLY MET'MAP TEAM :

Programming & Development : Alexandra Zaïnal
Concept & original design : Baudouin d'Aumeries
Assistance for programming : Marc-Olivier Méhu
Technical & hardware support : Manuel Goepfert

Contact : metmap@orbifly.com




SOURCES & CREDITS :

   NOAA